sensor_id;sensor_type;location;lat;lon;timestamp;pressure;altitude;pressure_sealevel;temperature;humidity
50282;BME280;36176;51.506;10.272;2024-01-11T00:00:51;100943.66;;;-10.05;83.53
50282;BME280;36176;51.506;10.272;2024-01-11T00:03:18;100947.81;;;-10.07;84.28
50282;BME280;36176;51.506;10.272;2024-01-11T00:05:46;100943.47;;;-10.08;84.49
50282;BME280;36176;51.506;10.272;2024-01-11T00:08:16;100951.00;;;-10.11;84.05
50282;BME280;36176;51.506;10.272;2024-01-11T00:10:43;100951.69;;;-10.14;84.46
50282;BME280;36176;51.506;10.272;2024-01-11T00:13:10;100955.94;;;-10.14;84.77
50282;BME280;36176;51.506;10.272;2024-01-11T00:15:37;100953.38;;;-10.14;85.24
50282;BME280;36176;51.506;10.272;2024-01-11T00:18:05;100953.38;;;-10.14;85.00
50282;BME280;36176;51.506;10.272;2024-01-11T00:20:32;100947.81;;;-10.22;84.39
50282;BME280;36176;51.506;10.272;2024-01-11T00:23:00;100949.38;;;-10.24;85.09
50282;BME280;36176;51.506;10.272;2024-01-11T00:25:27;100939.13;;;-10.24;85.29
50282;BME280;36176;51.506;10.272;2024-01-11T00:27:54;100942.56;;;-10.23;85.10
50282;BME280;36176;51.506;10.272;2024-01-11T00:30:21;100936.38;;;-10.27;85.15
50282;BME280;36176;51.506;10.272;2024-01-11T00:32:48;100930.22;;;-10.31;85.32
50282;BME280;36176;51.506;10.272;2024-01-11T00:35:16;100931.69;;;-10.34;84.90
50282;BME280;36176;51.506;10.272;2024-01-11T00:37:43;100923.06;;;-10.36;85.78
50282;BME280;36176;51.506;10.272;2024-01-11T00:40:10;100918.63;;;-10.39;85.86
50282;BME280;36176;51.506;10.272;2024-01-11T00:42:38;100919.41;;;-10.40;86.27
50282;BME280;36176;51.506;10.272;2024-01-11T00:45:05;100916.56;;;-10.44;86.08
50282;BME280;36176;51.506;10.272;2024-01-11T00:47:33;100914.72;;;-10.47;85.59
50282;BME280;36176;51.506;10.272;2024-01-11T00:50:00;100908.72;;;-10.47;86.45
50282;BME280;36176;51.506;10.272;2024-01-11T00:52:28;100913.03;;;-10.46;86.54
50282;BME280;36176;51.506;10.272;2024-01-11T00:54:55;100919.25;;;-10.43;87.07
50282;BME280;36176;51.506;10.272;2024-01-11T00:57:22;100917.66;;;-10.41;86.76
50282;BME280;36176;51.506;10.272;2024-01-11T00:59:49;100901.59;;;-10.38;86.49
50282;BME280;36176;51.506;10.272;2024-01-11T01:02:16;100905.03;;;-10.38;86.29
50282;BME280;36176;51.506;10.272;2024-01-11T01:04:43;100909.97;;;-10.41;85.92
50282;BME280;36176;51.506;10.272;2024-01-11T01:07:11;100915.53;;;-10.48;86.09
50282;BME280;36176;51.506;10.272;2024-01-11T01:09:38;100915.25;;;-10.53;85.68
50282;BME280;36176;51.506;10.272;2024-01-11T01:12:07;100913.56;;;-10.52;85.90
50282;BME280;36176;51.506;10.272;2024-01-11T01:14:34;100902.44;;;-10.53;86.16
50282;BME280;36176;51.506;10.272;2024-01-11T01:17:02;100905.69;;;-10.55;85.89
50282;BME280;36176;51.506;10.272;2024-01-11T01:19:29;100902.16;;;-10.57;85.98
50282;BME280;36176;51.506;10.272;2024-01-11T01:21:57;100909.03;;;-10.56;85.93
50282;BME280;36176;51.506;10.272;2024-01-11T01:24:24;100907.00;;;-10.62;86.34
50282;BME280;36176;51.506;10.272;2024-01-11T01:26:51;100895.06;;;-10.61;86.40
50282;BME280;36176;51.506;10.272;2024-01-11T01:29:18;100902.06;;;-10.59;86.00
50282;BME280;36176;51.506;10.272;2024-01-11T01:31:45;100909.84;;;-10.57;86.11
50282;BME280;36176;51.506;10.272;2024-01-11T01:34:12;100910.63;;;-10.58;85.96
50282;BME280;36176;51.506;10.272;2024-01-11T01:36:40;100913.00;;;-10.61;85.69
50282;BME280;36176;51.506;10.272;2024-01-11T01:39:07;100912.94;;;-10.63;86.21
50282;BME280;36176;51.506;10.272;2024-01-11T01:41:34;100910.44;;;-10.61;85.58
50282;BME280;36176;51.506;10.272;2024-01-11T01:44:02;100926.50;;;-10.64;85.25
50282;BME280;36176;51.506;10.272;2024-01-11T01:46:29;100939.72;;;-10.71;84.93
50282;BME280;36176;51.506;10.272;2024-01-11T01:48:57;100934.44;;;-10.74;85.19
50282;BME280;36176;51.506;10.272;2024-01-11T01:51:27;100932.34;;;-10.80;85.09
50282;BME280;36176;51.506;10.272;2024-01-11T01:53:56;100928.84;;;-10.82;85.63
50282;BME280;36176;51.506;10.272;2024-01-11T01:56:23;100921.59;;;-10.89;85.99
50282;BME280;36176;51.506;10.272;2024-01-11T01:58:51;100927.28;;;-10.93;86.91
50282;BME280;36176;51.506;10.272;2024-01-11T02:01:21;100914.59;;;-10.92;87.54
50282;BME280;36176;51.506;10.272;2024-01-11T02:03:52;100908.38;;;-10.95;86.84
50282;BME280;36176;51.506;10.272;2024-01-11T02:06:22;100910.53;;;-10.88;87.04
50282;BME280;36176;51.506;10.272;2024-01-11T02:08:51;100892.03;;;-10.84;87.01
50282;BME280;36176;51.506;10.272;2024-01-11T02:11:20;100904.19;;;-10.80;86.12
50282;BME280;36176;51.506;10.272;2024-01-11T02:13:49;100894.84;;;-10.79;86.37
50282;BME280;36176;51.506;10.272;2024-01-11T02:16:16;100906.84;;;-10.78;85.73
50282;BME280;36176;51.506;10.272;2024-01-11T02:18:43;100909.94;;;-10.84;85.04
50282;BME280;36176;51.506;10.272;2024-01-11T02:21:12;100907.88;;;-10.89;85.52
50282;BME280;36176;51.506;10.272;2024-01-11T02:23:44;100917.06;;;-10.93;85.32
50282;BME280;36176;51.506;10.272;2024-01-11T02:26:15;100910.94;;;-10.95;85.96
50282;BME280;36176;51.506;10.272;2024-01-11T02:28:44;100913.69;;;-10.92;86.46
50282;BME280;36176;51.506;10.272;2024-01-11T02:31:12;100922.34;;;-10.90;86.22
50282;BME280;36176;51.506;10.272;2024-01-11T02:33:41;100934.56;;;-10.86;86.41
50282;BME280;36176;51.506;10.272;2024-01-11T02:36:11;100926.78;;;-10.87;85.61
50282;BME280;36176;51.506;10.272;2024-01-11T02:38:41;100918.31;;;-10.86;86.80
50282;BME280;36176;51.506;10.272;2024-01-11T02:41:10;100915.84;;;-10.85;86.82
50282;BME280;36176;51.506;10.272;2024-01-11T02:43:38;100923.63;;;-10.83;86.76
50282;BME280;36176;51.506;10.272;2024-01-11T02:46:05;100916.13;;;-10.80;86.54
50282;BME280;36176;51.506;10.272;2024-01-11T02:48:32;100930.78;;;-10.78;85.67
50282;BME280;36176;51.506;10.272;2024-01-11T02:51:00;100923.72;;;-10.82;85.55
50282;BME280;36176;51.506;10.272;2024-01-11T02:53:27;100920.19;;;-10.84;86.48
50282;BME280;36176;51.506;10.272;2024-01-11T02:55:54;100921.06;;;-10.83;86.22
50282;BME280;36176;51.506;10.272;2024-01-11T02:58:21;100920.19;;;-10.84;85.88
50282;BME280;36176;51.506;10.272;2024-01-11T03:00:49;100922.53;;;-10.87;85.75
50282;BME280;36176;51.506;10.272;2024-01-11T03:03:16;100915.75;;;-10.86;85.73
50282;BME280;36176;51.506;10.272;2024-01-11T03:05:43;100906.91;;;-10.92;86.11
50282;BME280;36176;51.506;10.272;2024-01-11T03:08:10;100916.25;;;-10.92;86.34
50282;BME280;36176;51.506;10.272;2024-01-11T03:10:38;100912.91;;;-10.91;85.81
50282;BME280;36176;51.506;10.272;2024-01-11T03:13:06;100916.47;;;-10.89;85.49
50282;BME280;36176;51.506;10.272;2024-01-11T03:15:34;100913.00;;;-10.89;85.11
50282;BME280;36176;51.506;10.272;2024-01-11T03:18:03;100905.13;;;-10.93;85.43
50282;BME280;36176;51.506;10.272;2024-01-11T03:20:31;100921.19;;;-10.95;85.12
50282;BME280;36176;51.506;10.272;2024-01-11T03:22:58;100923.56;;;-10.98;85.04
50282;BME280;36176;51.506;10.272;2024-01-11T03:25:26;100924.75;;;-11.06;85.06
50282;BME280;36176;51.506;10.272;2024-01-11T03:27:53;100929.69;;;-11.09;85.35
50282;BME280;36176;51.506;10.272;2024-01-11T03:30:20;100933.03;;;-11.10;85.04
50282;BME280;36176;51.506;10.272;2024-01-11T03:32:47;100922.88;;;-11.09;85.70
50282;BME280;36176;51.506;10.272;2024-01-11T03:35:15;100925.44;;;-11.09;85.56
50282;BME280;36176;51.506;10.272;2024-01-11T03:37:42;100916.00;;;-11.10;85.70
50282;BME280;36176;51.506;10.272;2024-01-11T03:40:09;100915.03;;;-11.12;86.47
50282;BME280;36176;51.506;10.272;2024-01-11T03:42:37;100905.47;;;-11.15;86.34
50282;BME280;36176;51.506;10.272;2024-01-11T03:45:04;100912.34;;;-11.14;86.01
50282;BME280;36176;51.506;10.272;2024-01-11T03:47:32;100905.84;;;-11.08;85.76
50282;BME280;36176;51.506;10.272;2024-01-11T03:50:00;100900.72;;;-11.08;86.04
50282;BME280;36176;51.506;10.272;2024-01-11T03:52:27;100904.28;;;-11.06;85.32
50282;BME280;36176;51.506;10.272;2024-01-11T03:54:54;100892.28;;;-11.07;85.67
50282;BME280;36176;51.506;10.272;2024-01-11T03:57:21;100893.16;;;-11.07;86.40
50282;BME280;36176;51.506;10.272;2024-01-11T03:59:49;100894.94;;;-11.06;85.47
50282;BME280;36176;51.506;10.272;2024-01-11T04:02:16;100900.66;;;-11.10;85.26
50282;BME280;36176;51.506;10.272;2024-01-11T04:04:43;100896.50;;;-11.08;85.47
50282;BME280;36176;51.506;10.272;2024-01-11T04:07:10;100881.34;;;-11.05;86.01
50282;BME280;36176;51.506;10.272;2024-01-11T04:09:38;100892.56;;;-11.03;85.26
50282;BME280;36176;51.506;10.272;2024-01-11T04:12:05;100897.41;;;-11.07;85.21
50282;BME280;36176;51.506;10.272;2024-01-11T04:14:33;100904.97;;;-11.09;85.67
50282;BME280;36176;51.506;10.272;2024-01-11T04:17:00;100914.31;;;-11.09;86.06
50282;BME280;36176;51.506;10.272;2024-01-11T04:19:27;100908.50;;;-11.07;85.63
50282;BME280;36176;51.506;10.272;2024-01-11T04:21:55;100912.94;;;-11.04;85.63
50282;BME280;36176;51.506;10.272;2024-01-11T04:24:22;100928.28;;;-11.04;85.28
50282;BME280;36176;51.506;10.272;2024-01-11T04:26:49;100921.41;;;-11.05;85.68
50282;BME280;36176;51.506;10.272;2024-01-11T04:29:16;100933.53;;;-11.03;86.21
50282;BME280;36176;51.506;10.272;2024-01-11T04:31:44;100932.03;;;-10.99;86.01
50282;BME280;36176;51.506;10.272;2024-01-11T04:34:11;100944.91;;;-10.98;85.89
50282;BME280;36176;51.506;10.272;2024-01-11T04:36:38;100935.50;;;-10.99;85.92
50282;BME280;36176;51.506;10.272;2024-01-11T04:39:05;100947.38;;;-10.99;86.27
50282;BME280;36176;51.506;10.272;2024-01-11T04:41:35;100952.72;;;-10.96;85.99
50282;BME280;36176;51.506;10.272;2024-01-11T04:44:03;100945.97;;;-10.94;86.59
50282;BME280;36176;51.506;10.272;2024-01-11T04:46:30;100967.38;;;-10.94;85.89
50282;BME280;36176;51.506;10.272;2024-01-11T04:48:57;100961.56;;;-10.91;86.05
50282;BME280;36176;51.506;10.272;2024-01-11T04:51:25;100983.09;;;-10.87;86.09
50282;BME280;36176;51.506;10.272;2024-01-11T04:53:52;100983.22;;;-10.86;85.65
50282;BME280;36176;51.506;10.272;2024-01-11T04:56:21;100975.72;;;-10.83;86.06
50282;BME280;36176;51.506;10.272;2024-01-11T04:58:48;100975.72;;;-10.83;85.71
50282;BME280;36176;51.506;10.272;2024-01-11T05:01:16;100990.50;;;-10.92;84.87
50282;BME280;36176;51.506;10.272;2024-01-11T05:03:45;100991.88;;;-10.97;85.81
50282;BME280;36176;51.506;10.272;2024-01-11T05:06:19;100987.75;;;-10.95;86.08
50282;BME280;36176;51.506;10.272;2024-01-11T05:08:49;100991.13;;;-10.96;84.65
50282;BME280;36176;51.506;10.272;2024-01-11T05:11:18;100982.75;;;-10.94;85.65
50282;BME280;36176;51.506;10.272;2024-01-11T05:13:46;100971.50;;;-10.96;85.77
50282;BME280;36176;51.506;10.272;2024-01-11T05:16:31;100976.94;;;-11.04;86.87
50282;BME280;36176;51.506;10.272;2024-01-11T05:18:58;100992.56;;;-11.00;86.59
50282;BME280;36176;51.506;10.272;2024-01-11T05:21:26;100976.03;;;-11.05;86.15
50282;BME280;36176;51.506;10.272;2024-01-11T05:23:53;100960.69;;;-11.05;86.45
50282;BME280;36176;51.506;10.272;2024-01-11T05:26:20;100939.63;;;-11.01;86.98
50282;BME280;36176;51.506;10.272;2024-01-11T05:28:48;100925.50;;;-10.94;86.58
50282;BME280;36176;51.506;10.272;2024-01-11T05:31:15;100909.56;;;-10.90;88.21
50282;BME280;36176;51.506;10.272;2024-01-11T05:33:44;100896.25;;;-10.84;88.50
50282;BME280;36176;51.506;10.272;2024-01-11T05:36:12;100887.25;;;-10.78;88.84
50282;BME280;36176;51.506;10.272;2024-01-11T05:38:40;100895.59;;;-10.67;89.19
50282;BME280;36176;51.506;10.272;2024-01-11T05:41:07;100900.38;;;-10.58;89.91
50282;BME280;36176;51.506;10.272;2024-01-11T05:43:37;100898.56;;;-10.46;90.76
50282;BME280;36176;51.506;10.272;2024-01-11T05:46:05;100918.13;;;-10.33;89.72
50282;BME280;36176;51.506;10.272;2024-01-11T05:48:32;100921.09;;;-10.25;89.64
50282;BME280;36176;51.506;10.272;2024-01-11T05:50:59;100923.13;;;-10.20;89.32
50282;BME280;36176;51.506;10.272;2024-01-11T05:53:27;100945.69;;;-10.14;89.60
50282;BME280;36176;51.506;10.272;2024-01-11T05:55:54;100958.50;;;-10.14;88.75
50282;BME280;36176;51.506;10.272;2024-01-11T05:58:22;100965.22;;;-10.16;88.37
50282;BME280;36176;51.506;10.272;2024-01-11T06:00:49;100953.81;;;-10.21;88.65
50282;BME280;36176;51.506;10.272;2024-01-11T06:03:16;100958.75;;;-10.24;88.71
50282;BME280;36176;51.506;10.272;2024-01-11T06:05:43;100944.97;;;-10.27;88.39
50282;BME280;36176;51.506;10.272;2024-01-11T06:08:11;100950.97;;;-10.26;88.15
50282;BME280;36176;51.506;10.272;2024-01-11T06:10:39;100951.06;;;-10.24;88.25
50282;BME280;36176;51.506;10.272;2024-01-11T06:13:06;100940.72;;;-10.26;87.78
50282;BME280;36176;51.506;10.272;2024-01-11T06:15:33;100944.91;;;-10.28;88.04
50282;BME280;36176;51.506;10.272;2024-01-11T06:18:00;100955.22;;;-10.27;88.67
50282;BME280;36176;51.506;10.272;2024-01-11T06:20:28;100961.97;;;-10.29;87.56
50282;BME280;36176;51.506;10.272;2024-01-11T06:22:56;100949.75;;;-10.33;87.47
50282;BME280;36176;51.506;10.272;2024-01-11T06:25:23;100962.44;;;-10.34;87.47
50282;BME280;36176;51.506;10.272;2024-01-11T06:27:50;100979.63;;;-10.33;87.66
50282;BME280;36176;51.506;10.272;2024-01-11T06:30:17;100977.66;;;-10.37;87.11
50282;BME280;36176;51.506;10.272;2024-01-11T06:32:45;100997.88;;;-10.42;87.04
50282;BME280;36176;51.506;10.272;2024-01-11T06:35:12;100987.44;;;-10.45;87.74
50282;BME280;36176;51.506;10.272;2024-01-11T06:37:39;100972.06;;;-10.45;87.50
50282;BME280;36176;51.506;10.272;2024-01-11T06:40:07;100978.19;;;-10.43;87.29
50282;BME280;36176;51.506;10.272;2024-01-11T06:42:34;100959.44;;;-10.42;87.10
50282;BME280;36176;51.506;10.272;2024-01-11T06:45:02;100971.47;;;-10.41;87.55
50282;BME280;36176;51.506;10.272;2024-01-11T06:47:29;100968.22;;;-10.38;87.11
50282;BME280;36176;51.506;10.272;2024-01-11T06:49:56;100968.22;;;-10.38;86.82
50282;BME280;36176;51.506;10.272;2024-01-11T06:52:29;100973.41;;;-10.37;86.72
50282;BME280;36176;51.506;10.272;2024-01-11T06:54:56;100981.72;;;-10.41;86.79
50282;BME280;36176;51.506;10.272;2024-01-11T06:57:23;100966.13;;;-10.44;86.44
50282;BME280;36176;51.506;10.272;2024-01-11T06:59:51;100955.88;;;-10.44;86.81
50282;BME280;36176;51.506;10.272;2024-01-11T07:02:18;100951.75;;;-10.42;87.67
50282;BME280;36176;51.506;10.272;2024-01-11T07:04:45;100963.16;;;-10.37;87.99
50282;BME280;36176;51.506;10.272;2024-01-11T07:07:13;100957.72;;;-10.28;87.43
50282;BME280;36176;51.506;10.272;2024-01-11T07:09:40;100959.41;;;-10.29;87.05
50282;BME280;36176;51.506;10.272;2024-01-11T07:12:07;100951.75;;;-10.27;86.74
50282;BME280;36176;51.506;10.272;2024-01-11T07:14:35;100943.44;;;-10.23;86.58
50282;BME280;36176;51.506;10.272;2024-01-11T07:17:02;100927.47;;;-10.19;86.93
50282;BME280;36176;51.506;10.272;2024-01-11T07:19:30;100945.25;;;-10.22;86.65
50282;BME280;36176;51.506;10.272;2024-01-11T07:21:57;100946.81;;;-10.24;87.15
50282;BME280;36176;51.506;10.272;2024-01-11T07:24:25;100936.84;;;-10.19;87.59
50282;BME280;36176;51.506;10.272;2024-01-11T07:26:52;100950.00;;;-10.13;87.85
50282;BME280;36176;51.506;10.272;2024-01-11T07:29:19;100949.50;;;-10.08;87.54
50282;BME280;36176;51.506;10.272;2024-01-11T07:31:47;100952.41;;;-10.01;86.87
50282;BME280;36176;51.506;10.272;2024-01-11T07:34:14;100942.31;;;-9.98;87.11
50282;BME280;36176;51.506;10.272;2024-01-11T07:36:41;100953.84;;;-9.92;87.45
50282;BME280;36176;51.506;10.272;2024-01-11T07:39:09;100967.91;;;-9.85;87.05
50282;BME280;36176;51.506;10.272;2024-01-11T07:41:36;100965.34;;;-9.85;86.86
50282;BME280;36176;51.506;10.272;2024-01-11T07:44:03;100953.41;;;-9.85;86.53
50282;BME280;36176;51.506;10.272;2024-01-11T07:46:30;100956.84;;;-9.84;87.18
50282;BME280;36176;51.506;10.272;2024-01-11T07:49:08;100965.78;;;-9.77;86.48
50282;BME280;36176;51.506;10.272;2024-01-11T07:51:35;100965.00;;;-9.76;86.65
50282;BME280;36176;51.506;10.272;2024-01-11T07:54:02;100974.44;;;-9.75;86.75
50282;BME280;36176;51.506;10.272;2024-01-11T07:56:30;100971.88;;;-9.75;86.61
50282;BME280;36176;51.506;10.272;2024-01-11T07:58:57;100985.53;;;-9.76;86.59
50282;BME280;36176;51.506;10.272;2024-01-11T08:01:24;100989.69;;;-9.78;86.13
50282;BME280;36176;51.506;10.272;2024-01-11T08:03:51;100968.34;;;-9.77;86.29
50282;BME280;36176;51.506;10.272;2024-01-11T08:06:19;100963.59;;;-9.71;86.75
50282;BME280;36176;51.506;10.272;2024-01-11T08:08:47;100962.16;;;-9.66;86.66
50282;BME280;36176;51.506;10.272;2024-01-11T08:11:14;100956.44;;;-9.62;87.38
50282;BME280;36176;51.506;10.272;2024-01-11T08:13:41;100949.66;;;-9.60;87.44
50282;BME280;36176;51.506;10.272;2024-01-11T08:16:09;100960.19;;;-9.55;87.80
50282;BME280;36176;51.506;10.272;2024-01-11T08:18:36;100977.81;;;-9.47;87.07
50282;BME280;36176;51.506;10.272;2024-01-11T08:21:03;100984.44;;;-9.35;87.23
50282;BME280;36176;51.506;10.272;2024-01-11T08:23:31;100987.00;;;-9.21;87.55
50282;BME280;36176;51.506;10.272;2024-01-11T08:26:00;100978.53;;;-9.03;87.33
50282;BME280;36176;51.506;10.272;2024-01-11T08:28:28;100964.34;;;-8.96;86.84
50282;BME280;36176;51.506;10.272;2024-01-11T08:30:55;100973.59;;;-8.84;87.01
50282;BME280;36176;51.506;10.272;2024-01-11T08:33:22;100974.13;;;-8.74;87.26
50282;BME280;36176;51.506;10.272;2024-01-11T08:35:49;100978.41;;;-8.59;87.50
50282;BME280;36176;51.506;10.272;2024-01-11T08:38:17;100992.06;;;-8.43;86.76
50282;BME280;36176;51.506;10.272;2024-01-11T08:40:44;100983.22;;;-8.32;86.71
50282;BME280;36176;51.506;10.272;2024-01-11T08:43:11;100999.53;;;-8.15;86.50
50282;BME280;36176;51.506;10.272;2024-01-11T08:45:38;101004.81;;;-7.96;86.92
50282;BME280;36176;51.506;10.272;2024-01-11T08:48:05;100998.19;;;-7.74;86.30
50282;BME280;36176;51.506;10.272;2024-01-11T08:50:33;100992.59;;;-7.49;86.23
50282;BME280;36176;51.506;10.272;2024-01-11T08:53:00;100984.50;;;-7.21;84.70
50282;BME280;36176;51.506;10.272;2024-01-11T08:55:27;100986.28;;;-7.02;84.83
50282;BME280;36176;51.506;10.272;2024-01-11T08:57:54;100984.06;;;-6.76;84.39
50282;BME280;36176;51.506;10.272;2024-01-11T09:00:21;101003.19;;;-6.53;83.62
50282;BME280;36176;51.506;10.272;2024-01-11T09:02:50;101000.88;;;-6.28;84.18
50282;BME280;36176;51.506;10.272;2024-01-11T09:05:17;100992.94;;;-5.93;83.50
50282;BME280;36176;51.506;10.272;2024-01-11T09:07:44;100989.41;;;-5.55;82.14
50282;BME280;36176;51.506;10.272;2024-01-11T09:10:12;100988.44;;;-5.15;83.25
50282;BME280;36176;51.506;10.272;2024-01-11T09:12:39;100981.09;;;-4.61;82.13
50282;BME280;36176;51.506;10.272;2024-01-11T09:15:07;100983.31;;;-4.25;79.45
50282;BME280;36176;51.506;10.272;2024-01-11T09:17:34;100961.47;;;-3.83;80.63
50282;BME280;36176;51.506;10.272;2024-01-11T09:20:01;100963.56;;;-3.48;78.32
50282;BME280;36176;51.506;10.272;2024-01-11T09:22:28;100961.44;;;-3.07;77.55
50282;BME280;36176;51.506;10.272;2024-01-11T09:24:56;100960.16;;;-2.64;75.76
50282;BME280;36176;51.506;10.272;2024-01-11T09:27:23;100956.72;;;-2.34;72.66
50282;BME280;36176;51.506;10.272;2024-01-11T09:29:50;100959.47;;;-2.29;71.92
50282;BME280;36176;51.506;10.272;2024-01-11T09:32:22;100963.34;;;-2.14;70.56
50282;BME280;36176;51.506;10.272;2024-01-11T09:34:50;100967.22;;;-1.99;71.60
50282;BME280;36176;51.506;10.272;2024-01-11T09:37:17;100958.88;;;-1.54;71.35
50282;BME280;36176;51.506;10.272;2024-01-11T09:39:44;100952.38;;;-1.02;69.56
50282;BME280;36176;51.506;10.272;2024-01-11T09:42:11;100953.91;;;-0.72;67.62
50282;BME280;36176;51.506;10.272;2024-01-11T09:44:40;100958.66;;;-0.54;64.08
50282;BME280;36176;51.506;10.272;2024-01-11T09:47:10;100967.19;;;-0.60;66.44
50282;BME280;36176;51.506;10.272;2024-01-11T09:49:43;100964.28;;;-0.34;65.33
50282;BME280;36176;51.506;10.272;2024-01-11T09:52:12;100967.56;;;-0.02;62.13
50282;BME280;36176;51.506;10.272;2024-01-11T09:54:39;100972.97;;;0.09;61.90
50282;BME280;36176;51.506;10.272;2024-01-11T09:57:07;100974.50;;;-0.01;60.67
50282;BME280;36176;51.506;10.272;2024-01-11T09:59:36;100986.75;;;0.03;59.08
50282;BME280;36176;51.506;10.272;2024-01-11T10:02:04;100990.19;;;0.01;59.77
50282;BME280;36176;51.506;10.272;2024-01-11T10:04:31;100999.03;;;0.09;60.87
50282;BME280;36176;51.506;10.272;2024-01-11T10:06:58;100987.75;;;0.55;60.12
50282;BME280;36176;51.506;10.272;2024-01-11T10:09:26;100992.88;;;1.01;59.00
50282;BME280;36176;51.506;10.272;2024-01-11T10:11:53;100979.31;;;1.26;58.05
50282;BME280;36176;51.506;10.272;2024-01-11T10:14:21;100965.72;;;1.49;56.19
50282;BME280;36176;51.506;10.272;2024-01-11T10:16:48;100967.47;;;1.48;54.91
50282;BME280;36176;51.506;10.272;2024-01-11T10:19:15;100957.97;;;1.57;55.93
50282;BME280;36176;51.506;10.272;2024-01-11T10:21:43;100967.47;;;1.50;55.54
50282;BME280;36176;51.506;10.272;2024-01-11T10:24:17;100952.69;;;1.52;55.17
50282;BME280;36176;51.506;10.272;2024-01-11T10:26:45;100950.09;;;1.55;53.73
50282;BME280;36176;51.506;10.272;2024-01-11T10:29:12;100942.28;;;1.54;54.47
50282;BME280;36176;51.506;10.272;2024-01-11T10:31:42;100937.19;;;1.66;55.32
50282;BME280;36176;51.506;10.272;2024-01-11T10:34:09;100938.25;;;1.82;53.36
50282;BME280;36176;51.506;10.272;2024-01-11T10:36:36;100932.78;;;1.62;53.11
50282;BME280;36176;51.506;10.272;2024-01-11T10:39:03;100929.38;;;1.69;56.98
50282;BME280;36176;51.506;10.272;2024-01-11T10:41:34;100926.97;;;1.86;55.37
50282;BME280;36176;51.506;10.272;2024-01-11T10:44:19;100938.38;;;1.92;54.79
50282;BME280;36176;51.506;10.272;2024-01-11T10:46:47;100939.25;;;1.93;55.37
50282;BME280;36176;51.506;10.272;2024-01-11T10:49:19;100942.00;;;2.05;55.30
50282;BME280;36176;51.506;10.272;2024-01-11T10:51:55;100935.19;;;2.18;52.73
50282;BME280;36176;51.506;10.272;2024-01-11T10:54:29;100929.09;;;2.22;52.81
50282;BME280;36176;51.506;10.272;2024-01-11T10:57:01;100921.38;;;2.34;53.63
50282;BME280;36176;51.506;10.272;2024-01-11T10:59:33;100924.00;;;2.33;52.00
50282;BME280;36176;51.506;10.272;2024-01-11T11:02:04;100913.41;;;2.19;52.90
50282;BME280;36176;51.506;10.272;2024-01-11T11:04:35;100914.91;;;1.99;51.78
50282;BME280;36176;51.506;10.272;2024-01-11T11:10:02;100906.53;;;1.51;54.32
50282;BME280;36176;51.506;10.272;2024-01-11T11:12:36;100906.94;;;1.86;53.32
50282;BME280;36176;51.506;10.272;2024-01-11T11:15:05;100897.50;;;2.01;51.82
50282;BME280;36176;51.506;10.272;2024-01-11T11:17:38;100893.56;;;1.60;52.00
50282;BME280;36176;51.506;10.272;2024-01-11T11:20:12;100888.53;;;1.07;52.59
50282;BME280;36176;51.506;10.272;2024-01-11T11:23:07;100889.78;;;0.73;52.78
50282;BME280;36176;51.506;10.272;2024-01-11T11:25:40;100894.88;;;0.67;53.64
50282;BME280;36176;51.506;10.272;2024-01-11T11:28:12;100891.34;;;0.63;54.78
50282;BME280;36176;51.506;10.272;2024-01-11T11:30:41;100890.69;;;0.75;54.87
50282;BME280;36176;51.506;10.272;2024-01-11T11:33:15;100892.47;;;0.79;54.06
50282;BME280;36176;51.506;10.272;2024-01-11T11:35:49;100906.09;;;0.61;53.96
50282;BME280;36176;51.506;10.272;2024-01-11T11:38:24;100916.97;;;0.35;54.36
50282;BME280;36176;51.506;10.272;2024-01-11T11:40:59;100908.91;;;0.21;56.15
50282;BME280;36176;51.506;10.272;2024-01-11T11:43:31;100912.47;;;0.27;56.44
50282;BME280;36176;51.506;10.272;2024-01-11T11:46:00;100911.66;;;0.29;56.47
50282;BME280;36176;51.506;10.272;2024-01-11T11:51:07;100912.56;;;0.33;56.42
50282;BME280;36176;51.506;10.272;2024-01-11T11:53:36;100912.75;;;0.42;56.19
50282;BME280;36176;51.506;10.272;2024-01-11T11:56:09;100904.00;;;0.40;55.96
50282;BME280;36176;51.506;10.272;2024-01-11T11:58:37;100896.72;;;0.20;56.48
50282;BME280;36176;51.506;10.272;2024-01-11T12:01:05;100904.28;;;0.05;56.86
50282;BME280;36176;51.506;10.272;2024-01-11T12:03:34;100897.47;;;0.13;55.55
50282;BME280;36176;51.506;10.272;2024-01-11T12:06:05;100907.09;;;0.17;56.13
50282;BME280;36176;51.506;10.272;2024-01-11T12:08:34;100907.84;;;0.12;55.47
50282;BME280;36176;51.506;10.272;2024-01-11T12:11:02;100900.53;;;-0.09;57.12
50282;BME280;36176;51.506;10.272;2024-01-11T12:13:30;100892.03;;;0.01;57.66
50282;BME280;36176;51.506;10.272;2024-01-11T12:15:57;100888.78;;;0.13;57.17
50282;BME280;36176;51.506;10.272;2024-01-11T12:18:26;100876.66;;;0.15;56.28
50282;BME280;36176;51.506;10.272;2024-01-11T12:20:56;100883.72;;;0.24;56.35
50282;BME280;36176;51.506;10.272;2024-01-11T12:23:23;100870.25;;;0.49;57.57
50282;BME280;36176;51.506;10.272;2024-01-11T12:25:51;100865.41;;;0.74;57.06
50282;BME280;36176;51.506;10.272;2024-01-11T12:28:18;100853.38;;;0.83;56.34
50282;BME280;36176;51.506;10.272;2024-01-11T12:30:49;100854.97;;;0.72;55.65
50282;BME280;36176;51.506;10.272;2024-01-11T12:33:17;100857.75;;;0.83;56.56
50282;BME280;36176;51.506;10.272;2024-01-11T12:35:49;100847.47;;;0.95;56.23
50282;BME280;36176;51.506;10.272;2024-01-11T12:38:19;100847.56;;;1.01;56.47
50282;BME280;36176;51.506;10.272;2024-01-11T12:40:47;100824.81;;;0.93;56.06
50282;BME280;36176;51.506;10.272;2024-01-11T12:43:15;100816.63;;;0.65;56.10
50282;BME280;36176;51.506;10.272;2024-01-11T12:45:42;100810.06;;;0.35;56.73